This is the latest recevied weather packets stored in our database for station/object VK4AB-13. If no packets are shown the sender has not sent any weather packets the latest 1 day(s).
| Time | Temp. | Humidity | Pressure | Rain* | Wind** | Luminosity | Snow |
|---|---|---|---|---|---|---|---|
| 1836274811 | 22.78° C | 68% | 1012 hPa | 0 mm | 2.68 m/s, 225° | 570 W/m² | - |
| 1836274511 | 22.22° C | 68% | 1011.6 hPa | 0 mm | 2.24 m/s, 177° | 283 W/m² | - |
| 1836274361 | 22.78° C | 66% | 1012 hPa | 0 mm | 3.13 m/s, 295° | 429 W/m² | - |
| 1836274211 | 22.22° C | 69% | 1011.2 hPa | 0 mm | 1.34 m/s, 272° | 315 W/m² | - |
| 1836273911 | 22.22° C | 70% | 1011 hPa | 0 mm | 1.79 m/s, 315° | 329 W/m² | - |
| 1778056725 | 21.67° C | 83% | 1016.3 hPa | 0 mm | 0 m/s | 0 W/m² | - |
| 1778056425 | 21.67° C | 83% | 1016.3 hPa | 0 mm | 0 m/s | 0 W/m² | - |
| 1778056125 | 21.67° C | 82% | 1016.1 hPa | 0 mm | 0 m/s | 0 W/m² | - |
| 1778055825 | 21.67° C | 82% | 1016 hPa | 0 mm | 0.45 m/s, 109° | 0 W/m² | - |
| 1778055525 | 21.67° C | 82% | 1016 hPa | 0 mm | 0.45 m/s, 109° | 0 W/m² | - |
| 1778055225 | 22.22° C | 82% | 1015.8 hPa | 0 mm | 0.45 m/s, 109° | 0 W/m² | - |
| 1778054925 | 22.22° C | 82% | 1015.7 hPa | 0 mm | 0.45 m/s, 109° | 0 W/m² | - |
| 1778054625 | 22.22° C | 81% | 1015.7 hPa | 0 mm | 0.45 m/s, 109° | 0 W/m² | - |
| 1778054325 | 22.22° C | 81% | 1015.7 hPa | 0 mm | 0.45 m/s, 109° | 0 W/m² | - |
| 1778054025 | 22.22° C | 81% | 1015.6 hPa | 0 mm | 0.89 m/s, 109° | 0 W/m² | - |
| 1778053725 | 22.22° C | 80% | 1015.5 hPa | 0 mm | 0.89 m/s, 109° | 0 W/m² | - |
| 1778053425 | 22.78° C | 80% | 1015.5 hPa | 0 mm | 0.89 m/s, 109° | 0 W/m² | - |
| 1778053125 | 22.78° C | 79% | 1015.5 hPa | 0 mm | 0.45 m/s, 109° | 0 W/m² | - |
| 1778052825 | 22.78° C | 79% | 1015.5 hPa | 0 mm | 0 m/s | 0 W/m² | - |
| 1778052525 | 22.78° C | 78% | 1015.5 hPa | 0 mm | 0.45 m/s, 109° | 0 W/m² | - |
| 1778052225 | 23.33° C | 78% | 1015.4 hPa | 0 mm | 0.89 m/s, 109° | 0 W/m² | - |
| 1778051925 | 23.33° C | 77% | 1015.4 hPa | 0 mm | 0.45 m/s, 109° | 0 W/m² | - |
| 1778051625 | 23.33° C | 76% | 1015.3 hPa | 0 mm | 0.45 m/s, 109° | 0 W/m² | - |
| 1778051325 | 23.33° C | 76% | 1015.2 hPa | 0 mm | 0.89 m/s, 109° | 5 W/m² | - |
| 1778051025 | 23.89° C | 75% | 1015.2 hPa | 0 mm | 0.89 m/s, 109° | 7 W/m² | - |
* Rain latest hour (hover to see other rain measurements)
** Current wind speed in m/s (hover to see current wind gust speed)